Pilot No 5 — WDC3840 — position and weather

sailwx.info

Track history (hours):
 
Tides and Currents Weather Stations Pressure Air Temp Water Temp Dewpoint Dewpoint Depression Visibility Wind Speed Wind Dir Waves Ship Positions

Pilot No 5

Owner: P E P INC, FT LAUDERDALE, FL. More information available from US FCC via Universal Licensing System and Coast Guard Vessel Documentation Center.

Last reported at 2015-Jul-07 22:08 UTC. Time now 2015-Jul-08 00:07 UTC.
Position N 26°06' W 080°06'.

Length 6 m.

Type: Pilot. MMSI: 367015090.

Date/timePositionNaut miles runAvg speedWind from/ knotsBaromVisibWave heightAir tempDewpointWater temp
2015-Jul-07 22:08N 26°06' W 080°06'0 0.0
2015-Jul-07 21:06N 26°06' W 080°06'0 0.1
2015-Jul-07 20:08N 26°06' W 080°06'3 0.4
2015-Jul-07 12:27N 26°06' W 080°03'1 1.3
2015-Jul-07 11:33N 26°06' W 080°04'  
2015-Jul-03 11:27N 26°06' W 080°06'0 0.0
2015-Jul-03 09:06N 26°06' W 080°06'3 6.2
2015-Jul-03 08:34N 26°07' W 080°03'3 2.4
2015-Jul-03 07:13N 26°06' W 080°06'1 0.4
2015-Jul-03 05:33N 26°06' W 080°05'1 0.3
2015-Jul-03 03:32N 26°06' W 080°06'2 1.7
2015-Jul-03 02:26N 26°07' W 080°04'2 2.1
2015-Jul-03 01:30N 26°06' W 080°06'0 0.0
2015-Jul-03 00:28N 26°06' W 080°06'0 0.1
2015-Jul-02 22:33N 26°06' W 080°06'0 0.1
2015-Jul-02 20:20N 26°06' W 080°06'0 0.0
2015-Jul-02 03:27N 26°06' W 080°06'0 0.0
2015-Jul-02 02:23N 26°06' W 080°06'0 0.0
2015-Jul-01 19:06N 26°06' W 080°06'0 0.2
2015-Jul-01 18:14N 26°06' W 080°06'1 0.8
2015-Jul-01 17:33N 26°06' W 080°06'1 0.4
2015-Jul-01 16:19N 26°06' W 080°06'1 1.3
2015-Jul-01 15:33N 26°06' W 080°05'1 0.8
2015-Jul-01 14:17N 26°06' W 080°06'0 0.0
2015-Jul-01 12:18N 26°06' W 080°06'0 0.0
2015-Jul-01 11:07N 26°06' W 080°06'1 1.2
2015-Jul-01 10:33N 26°06' W 080°06'0 0.2
2015-Jul-01 08:33N 26°06' W 080°06'0 0.0
2015-Jul-01 04:33N 26°06' W 080°06'0 0.0
2015-Jun-30 22:04N 26°06' W 080°06'1 0.4
2015-Jun-30 19:33N 26°06' W 080°05'1 0.2
2015-Jun-30 13:03N 26°06' W 080°06'1 1.7
2015-Jun-30 12:23N 26°06' W 080°05'1 0.6
2015-Jun-30 10:26N 26°06' W 080°06'1 0.2
2015-Jun-30 05:33N 26°05' W 080°05'1 0.1
2015-Jun-29 11:12N 26°06' W 080°06'1 0.7
2015-Jun-29 09:34N 26°06' W 080°05'1 0.2
2015-Jun-29 04:12N 26°06' W 080°06'4 0.5
2015-Jun-28 20:33N 26°06' W 080°02'1 0.1
2015-Jun-28 10:34N 26°07' W 080°04'2 1.0
2015-Jun-28 08:16N 26°06' W 080°06'  
Track history (hours):
 
Tides and Currents Weather Stations Pressure Air Temp Water Temp Dewpoint Dewpoint Depression Visibility Wind Speed Wind Dir Waves Ship Positions

Pilot No 5

Owner: P E P INC, FT LAUDERDALE, FL. More information available from US FCC via Universal Licensing System and Coast Guard Vessel Documentation Center.

Last reported at 2015-Jul-07 22:08 UTC. Time now 2015-Jul-08 00:07 UTC.
Position N 26°06' W 080°06'.

Length 6 m.

Type: Pilot. MMSI: 367015090.

Date/timePositionNaut miles runAvg speedWind from/ knotsBaromVisibWave heightAir tempDewpointWater temp
2015-Jul-07 22:08N 26°06' W 080°06'0 0.0
2015-Jul-07 21:06N 26°06' W 080°06'0 0.1
2015-Jul-07 20:08N 26°06' W 080°06'3 0.4
2015-Jul-07 12:27N 26°06' W 080°03'1 1.3
2015-Jul-07 11:33N 26°06' W 080°04'  
2015-Jul-03 11:27N 26°06' W 080°06'0 0.0
2015-Jul-03 09:06N 26°06' W 080°06'3 6.2
2015-Jul-03 08:34N 26°07' W 080°03'3 2.4
2015-Jul-03 07:13N 26°06' W 080°06'1 0.4
2015-Jul-03 05:33N 26°06' W 080°05'1 0.3
2015-Jul-03 03:32N 26°06' W 080°06'2 1.7
2015-Jul-03 02:26N 26°07' W 080°04'2 2.1
2015-Jul-03 01:30N 26°06' W 080°06'0 0.0
2015-Jul-03 00:28N 26°06' W 080°06'0 0.1
2015-Jul-02 22:33N 26°06' W 080°06'0 0.1
2015-Jul-02 20:20N 26°06' W 080°06'0 0.0
2015-Jul-02 03:27N 26°06' W 080°06'0 0.0
2015-Jul-02 02:23N 26°06' W 080°06'0 0.0
2015-Jul-01 19:06N 26°06' W 080°06'0 0.2
2015-Jul-01 18:14N 26°06' W 080°06'1 0.8
2015-Jul-01 17:33N 26°06' W 080°06'1 0.4
2015-Jul-01 16:19N 26°06' W 080°06'1 1.3
2015-Jul-01 15:33N 26°06' W 080°05'1 0.8
2015-Jul-01 14:17N 26°06' W 080°06'0 0.0
2015-Jul-01 12:18N 26°06' W 080°06'0 0.0
2015-Jul-01 11:07N 26°06' W 080°06'1 1.2
2015-Jul-01 10:33N 26°06' W 080°06'0 0.2
2015-Jul-01 08:33N 26°06' W 080°06'0 0.0
2015-Jul-01 04:33N 26°06' W 080°06'0 0.0
2015-Jun-30 22:04N 26°06' W 080°06'1 0.4
2015-Jun-30 19:33N 26°06' W 080°05'1 0.2
2015-Jun-30 13:03N 26°06' W 080°06'1 1.7
2015-Jun-30 12:23N 26°06' W 080°05'1 0.6
2015-Jun-30 10:26N 26°06' W 080°06'1 0.2
2015-Jun-30 05:33N 26°05' W 080°05'1 0.1
2015-Jun-29 11:12N 26°06' W 080°06'1 0.7
2015-Jun-29 09:34N 26°06' W 080°05'1 0.2
2015-Jun-29 04:12N 26°06' W 080°06'4 0.5
2015-Jun-28 20:33N 26°06' W 080°02'1 0.1
2015-Jun-28 10:34N 26°07' W 080°04'2 1.0
2015-Jun-28 08:16N 26°06' W 080°06'  

Dump ship's entire track history